Time;durP1;ratioP1;P1;durP2;ratioP2;P2;SDS_P1;SDS_P2;PMS_P1;PMS_P2;Temp;Humidity;BMP_temperature;BMP_pressure;BME280_temperature;BME280_humidity;BME280_pressure;Samples;Min_cycle;Max_cycle;Signal;HPM_P1;HPM_P2
2022/06/18 00:00:42;;;;;;;5.12;1.50;;;;;;;22.02;37.45;99305.84;4502019;31;20108;-81
2022/06/18 00:03:09;;;;;;;4.78;1.45;;;;;;;22.01;37.42;99299.63;4503079;31;20111;-81
2022/06/18 00:05:35;;;;;;;5.87;1.80;;;;;;;21.99;37.21;99306.97;4501986;31;20114;-81
2022/06/18 00:08:01;;;;;;;5.72;1.70;;;;;;;21.98;37.19;99306.13;4503096;31;20431;-81
2022/06/18 00:10:29;;;;;;;6.07;1.75;;;;;;;21.97;37.32;99301.75;4502045;31;20180;-80
2022/06/18 00:15:41;;;;;;;4.85;1.90;;;;;;;21.96;37.37;99304.56;4500968;31;20102;-81
2022/06/18 00:18:11;;;;;;;5.18;1.65;;;;;;;21.93;37.33;99315.59;4503127;31;20118;-81
2022/06/18 00:20:38;;;;;;;5.37;1.70;;;;;;;21.92;37.40;99312.09;4501952;31;20224;-81
2022/06/18 00:23:05;;;;;;;4.78;1.58;;;;;;;21.90;37.57;99311.34;4501796;31;20375;-81
2022/06/18 00:25:36;;;;;;;4.78;1.73;;;;;;;21.90;37.68;99308.66;4501580;31;20092;-81
2022/06/18 00:28:06;;;;;;;6.03;1.70;;;;;;;21.85;37.62;99312.81;4488715;31;20112;-81
2022/06/18 00:30:32;;;;;;;4.72;1.77;;;;;;;21.84;37.70;99316.47;4503010;31;20190;-81
2022/06/18 00:32:57;;;;;;;4.47;1.70;;;;;;;21.85;37.73;99312.81;4501879;31;20347;-81
2022/06/18 00:35:23;;;;;;;4.28;1.50;;;;;;;21.83;37.56;99315.63;4502945;31;20084;-81
2022/06/18 00:37:54;;;;;;;6.18;1.58;;;;;;;21.87;37.52;99310.81;4501626;31;20130;-81
2022/06/18 00:40:30;;;;;;;8.85;1.95;;;;;;;21.87;37.91;99317.03;4501816;31;20088;-81
2022/06/18 00:43:02;;;;;;;4.47;1.50;;;;;;;21.83;37.90;99312.94;4501685;31;20092;-81
2022/06/18 00:45:29;;;;;;;3.80;1.65;;;;;;;21.82;37.69;99315.75;4502720;31;20506;-81
2022/06/18 00:48:17;;;;;;;3.50;1.50;;;;;;;21.80;37.56;99311.38;4502913;31;20148;-81
2022/06/18 00:50:54;;;;;;;5.28;1.75;;;;;;;21.87;37.49;99313.50;4501569;31;20395;-81
2022/06/18 00:53:47;;;;;;;3.97;1.75;;;;;;;21.82;37.64;99313.06;4501524;31;20102;-81
2022/06/18 00:56:24;;;;;;;6.30;2.10;;;;;;;21.91;37.81;99309.53;4493666;31;20084;-81
2022/06/18 00:58:58;;;;;;;4.95;1.83;;;;;;;21.96;37.92;99315.28;4502813;31;20126;-81
2022/06/18 01:01:45;;;;;;;6.75;2.17;;;;;;;21.95;38.23;99313.63;4502803;31;20104;-81
2022/06/18 01:04:21;;;;;;;4.90;1.98;;;;;;;21.99;38.09;99312.34;4501569;31;20079;-81
2022/06/18 01:06:46;;;;;;;5.20;2.03;;;;;;;21.98;37.93;99310.62;4502592;31;20080;-81
2022/06/18 01:09:14;;;;;;;5.55;2.17;;;;;;;21.98;37.66;99308.81;4501474;31;20123;-81
2022/06/18 01:11:40;;;;;;;7.30;2.00;;;;;;;22.01;37.60;99313.03;4501433;31;20096;-81
2022/06/18 01:14:08;;;;;;;6.93;2.30;;;;;;;22.04;37.83;99310.09;4501256;31;20512;-81
2022/06/18 01:16:33;;;;;;;6.62;2.00;;;;;;;22.09;37.82;99306.94;4501278;31;20427;-81
2022/06/18 01:18:59;;;;;;;6.47;1.83;;;;;;;22.05;37.69;99314.44;4502327;31;20118;-81
2022/06/18 01:21:48;;;;;;;5.85;2.10;;;;;;;22.07;37.38;99309.78;4501269;31;20134;-80
2022/06/18 01:24:14;;;;;;;6.15;2.03;;;;;;;22.13;37.34;99306.50;4487901;31;20092;-81
2022/06/18 01:26:39;;;;;;;6.10;1.92;;;;;;;22.18;37.30;99303.41;4501808;31;20415;-81
2022/06/18 01:29:05;;;;;;;5.53;2.00;;;;;;;22.19;37.34;99311.31;4502519;31;20093;-81
2022/06/18 01:31:31;;;;;;;4.90;1.90;;;;;;;22.13;37.25;99301.13;4502429;31;20104;-81
2022/06/18 01:33:57;;;;;;;6.55;2.00;;;;;;;22.22;37.34;99303.97;4500960;31;20116;-81
2022/06/18 01:36:23;;;;;;;6.87;2.10;;;;;;;22.26;37.50;99291.97;4500871;31;20099;-81
2022/06/18 01:38:48;;;;;;;7.90;2.45;;;;;;;22.25;37.60;99288.47;4500962;31;20107;-81
2022/06/18 01:44:12;;;;;;;5.55;2.10;;;;;;;22.29;37.82;99286.31;4501172;31;20132;-81
2022/06/18 01:46:41;;;;;;;7.37;2.20;;;;;;;22.22;37.95;99298.59;4500876;31;20088;-81
2022/06/18 01:49:10;;;;;;;5.95;2.37;;;;;;;22.23;38.25;99290.38;4500882;31;20124;-80
2022/06/18 01:51:38;;;;;;;6.90;2.45;;;;;;;22.24;38.33;99291.25;4500836;31;20520;-80
2022/06/18 01:54:07;;;;;;;;;;;;;;;22.25;38.37;99287.59;4502164;31;20095;-81
2022/06/18 01:56:40;;;;;;;8.73;2.20;;;;;;;22.33;38.33;99296.62;4500752;31;20003;-80
2022/06/18 01:59:50;;;;;;;7.37;2.20;;;;;;;22.28;38.44;99298.88;4500775;31;20155;-80
2022/06/18 02:02:16;;;;;;;6.35;2.20;;;;;;;22.28;38.50;99292.69;4437047;32;20089;-80
2022/06/18 02:04:42;;;;;;;6.65;2.30;;;;;;;22.28;38.37;99298.03;4424204;32;20246;-80
2022/06/18 02:07:08;;;;;;;6.20;2.35;;;;;;;22.28;38.52;99295.34;4437003;32;20102;-80
2022/06/18 02:09:44;;;;;;;7.50;2.28;;;;;;;22.29;38.61;99286.31;4437033;32;20456;-81
2022/06/18 02:12:14;;;;;;;5.57;2.17;;;;;;;22.31;38.79;99290.56;4424097;32;20158;-80
2022/06/18 02:14:42;;;;;;;7.62;2.25;;;;;;;22.30;38.94;99288.00;4423986;32;20078;-80
2022/06/18 02:17:10;;;;;;;6.37;2.30;;;;;;;22.29;38.90;99286.31;4423938;32;20141;-80
2022/06/18 02:19:36;;;;;;;7.47;2.53;;;;;;;22.27;39.01;99278.41;4424265;32;20101;-81
2022/06/18 02:22:05;;;;;;;6.05;2.42;;;;;;;22.25;39.11;99275.03;4424219;32;20534;-81
2022/06/18 02:24:30;;;;;;;7.07;2.58;;;;;;;22.21;39.43;99272.75;4424113;32;20144;-81
2022/06/18 02:26:56;;;;;;;6.53;2.80;;;;;;;22.22;39.35;99275.28;4436727;32;20116;-81
2022/06/18 02:29:26;;;;;;;8.07;2.30;;;;;;;22.16;39.24;99274.03;4424013;32;20630;-81
2022/06/18 02:31:52;;;;;;;6.50;2.37;;;;;;;22.17;39.08;99278.41;4424073;32;20191;-81
2022/06/18 02:34:20;;;;;;;5.25;2.30;;;;;;;22.13;39.13;99277.00;4423644;32;20127;-81
2022/06/18 02:36:46;;;;;;;7.47;2.40;;;;;;;22.14;39.13;99277.87;4426917;31;20141;-81
2022/06/18 02:39:38;;;;;;;7.30;2.70;;;;;;;22.13;39.17;99281.53;4502082;31;20126;-81
2022/06/18 02:42:06;;;;;;;8.90;2.78;;;;;;;22.12;39.28;99274.47;4503807;31;20143;-81
2022/06/18 02:44:31;;;;;;;;;;;;;;;22.06;39.29;99283.94;4504216;31;20132;-82
2022/06/18 02:47:00;;;;;;;5.85;2.65;;;;;;;22.12;38.99;99283.38;4502528;31;19982;-81
2022/06/18 02:49:25;;;;;;;7.28;2.47;;;;;;;22.06;39.15;99286.63;4502491;31;20136;-81
2022/06/18 02:51:51;;;;;;;6.62;2.47;;;;;;;22.05;39.07;99279.56;4502480;31;20478;-81
2022/06/18 02:54:18;;;;;;;7.68;2.85;;;;;;;22.03;39.12;99278.03;4503544;31;20145;-81
2022/06/18 02:56:43;;;;;;;;;;;;;;;22.03;39.33;99278.03;4502637;31;20096;-81
2022/06/18 02:59:09;;;;;;;7.72;2.70;;;;;;;22.11;39.39;99287.03;4503616;31;19967;-81
2022/06/18 03:01:35;;;;;;;6.32;2.53;;;;;;;22.07;39.58;99290.16;4503551;31;20092;-79
2022/06/18 03:04:01;;;;;;;7.07;2.35;;;;;;;22.06;39.68;99294.69;4503479;31;20076;-80
2022/06/18 03:06:28;;;;;;;7.15;2.78;;;;;;;22.06;39.80;99299.19;4502598;31;20076;-80
2022/06/18 03:08:55;;;;;;;6.60;2.58;;;;;;;22.03;39.86;99288.75;4502242;31;20156;-80
2022/06/18 03:14:08;;;;;;;7.65;3.12;;;;;;;22.08;39.91;99292.69;4502425;31;20458;-80
2022/06/18 03:16:34;;;;;;;6.72;2.60;;;;;;;22.11;40.01;99295.06;4503460;31;20077;-81
2022/06/18 03:19:00;;;;;;;7.18;2.60;;;;;;;22.14;39.70;99293.97;4503388;31;20452;-81
2022/06/18 03:21:41;;;;;;;7.53;2.67;;;;;;;22.14;39.51;99294.78;4502035;31;20147;-81
2022/06/18 03:24:07;;;;;;;7.45;2.87;;;;;;;22.25;39.14;99301.00;4502397;31;20102;-81
2022/06/18 03:26:35;;;;;;;7.43;2.92;;;;;;;22.32;38.55;99296.75;4501946;31;20076;-81
2022/06/18 03:29:01;;;;;;;7.43;2.97;;;;;;;22.46;38.84;99306.16;4503368;31;20119;-81
2022/06/18 03:31:27;;;;;;;7.40;3.15;;;;;;;22.53;38.88;99301.91;4502193;31;20159;-81
2022/06/18 03:33:52;;;;;;;8.27;2.90;;;;;;;22.63;38.86;99304.56;4503191;31;20104;-81
2022/06/18 03:36:19;;;;;;;7.22;2.90;;;;;;;22.69;38.74;99291.34;4503350;31;20132;-80
2022/06/18 03:38:45;;;;;;;6.87;2.80;;;;;;;22.74;38.68;99291.75;4488960;31;20104;-80
2022/06/18 03:41:12;;;;;;;9.18;2.83;;;;;;;22.78;38.77;99284.25;4503609;31;20112;-80
2022/06/18 03:43:38;;;;;;;8.23;2.83;;;;;;;22.85;38.79;99289.88;4503558;31;20146;-80
2022/06/18 03:46:07;;;;;;;7.78;2.97;;;;;;;22.93;38.68;99292.66;4502375;31;20089;-80
2022/06/18 03:48:46;;;;;;;7.43;2.92;;;;;;;22.99;38.79;99284.00;4502180;31;20428;-80
2022/06/18 03:51:12;;;;;;;7.80;3.05;;;;;;;23.03;38.88;99285.41;4503382;31;20124;-80
2022/06/18 03:53:38;;;;;;;7.47;2.83;;;;;;;23.12;38.46;99286.34;4503105;31;20079;-80
2022/06/18 03:56:04;;;;;;;7.03;2.62;;;;;;;23.24;37.69;99279.75;4501957;31;20080;-80
2022/06/18 03:58:30;;;;;;;7.65;2.60;;;;;;;23.15;37.28;99288.72;4503264;31;20115;-80
2022/06/18 04:00:56;;;;;;;8.15;2.90;;;;;;;23.41;37.19;99282.59;4503144;31;20088;-80
2022/06/18 04:03:21;;;;;;;7.97;2.70;;;;;;;23.48;37.04;99292.56;4503181;31;20080;-79
2022/06/18 04:05:47;;;;;;;7.97;2.90;;;;;;;23.69;36.04;99289.56;4501980;31;20076;-80
2022/06/18 04:08:13;;;;;;;9.95;2.80;;;;;;;23.74;35.81;99289.94;4503074;31;20115;-80
2022/06/18 04:10:39;;;;;;;8.00;2.65;;;;;;;23.87;35.71;99294.94;4488644;31;20109;-80
2022/06/18 04:13:05;;;;;;;10.23;2.85;;;;;;;24.14;34.87;99293.97;4503028;31;20495;-79
2022/06/18 04:15:33;;;;;;;6.78;2.65;;;;;;;24.37;34.57;99298.81;4502887;31;20076;-80
2022/06/18 04:17:58;;;;;;;7.43;2.55;;;;;;;24.41;34.29;99297.47;4503032;31;20168;-80
2022/06/18 04:20:27;;;;;;;7.45;2.67;;;;;;;24.67;34.63;99299.34;4502874;31;20383;-80
2022/06/18 04:22:53;;;;;;;6.95;2.70;;;;;;;24.92;33.67;99294.88;4502891;31;20486;-80
2022/06/18 04:25:19;;;;;;;7.10;2.65;;;;;;;24.84;34.45;99298.41;4502794;31;20642;-80
2022/06/18 04:27:44;;;;;;;7.05;2.70;;;;;;;24.87;34.76;99298.03;4488492;31;20469;-80
2022/06/18 04:30:11;;;;;;;7.00;2.67;;;;;;;25.10;34.43;99294.75;4502972;31;20144;-80
2022/06/18 04:32:37;;;;;;;7.35;2.58;;;;;;;25.22;33.31;99298.84;4502963;31;20502;-80
2022/06/18 04:35:08;;;;;;;8.45;2.60;;;;;;;25.42;32.32;99296.72;4502735;31;20083;-80
2022/06/18 04:37:34;;;;;;;10.13;2.90;;;;;;;25.39;32.00;99294.34;4488430;31;20715;-80
2022/06/18 04:39:59;;;;;;;6.37;2.60;;;;;;;25.53;32.11;99300.91;4501642;31;20098;-80
2022/06/18 04:42:25;;;;;;;7.20;2.80;;;;;;;25.60;31.82;99293.84;4502883;31;20435;-80
2022/06/18 04:44:51;;;;;;;6.85;2.42;;;;;;;25.61;32.38;99300.06;4502998;31;20072;-79
2022/06/18 04:47:17;;;;;;;5.07;2.03;;;;;;;25.60;32.88;99310.03;4503009;31;20088;-80
2022/06/18 04:49:43;;;;;;;6.15;2.33;;;;;;;25.82;32.80;99304.97;4503015;31;20100;-80
2022/06/18 04:52:16;;;;;;;8.27;2.80;;;;;;;25.97;33.30;99308.72;4502953;31;20088;-80
2022/06/18 04:54:42;;;;;;;7.95;2.67;;;;;;;26.27;33.64;99315.25;4501461;31;20564;-80
2022/06/18 04:57:07;;;;;;;6.82;2.37;;;;;;;26.30;33.71;99319.47;4502671;31;20126;-80
2022/06/18 04:59:33;;;;;;;7.87;2.60;;;;;;;26.45;32.24;99314.19;4501483;31;20100;-81
2022/06/18 05:02:05;;;;;;;7.25;2.40;;;;;;;26.35;32.28;99313.53;4501896;31;20472;-81
2022/06/18 05:04:30;;;;;;;6.07;2.50;;;;;;;26.41;31.81;99316.41;4502717;31;20076;-80
2022/06/18 05:06:56;;;;;;;6.72;2.33;;;;;;;26.27;31.79;99317.97;4502617;31;20465;-80
2022/06/18 05:09:21;;;;;;;9.45;3.83;;;;;;;26.22;32.28;99322.19;4502578;31;20112;-80
2022/06/18 05:11:47;;;;;;;6.53;2.67;;;;;;;26.14;32.94;99325.75;4502579;31;20084;-80
2022/06/18 05:14:14;;;;;;;6.68;2.60;;;;;;;26.10;33.12;99329.81;4502466;31;20072;-80
2022/06/18 05:16:40;;;;;;;6.50;2.40;;;;;;;25.90;33.90;99330.13;4502501;31;20113;-80
2022/06/18 05:19:06;;;;;;;6.82;2.50;;;;;;;25.85;34.28;99329.78;4501367;31;20125;-80
2022/06/18 05:21:31;;;;;;;6.18;2.53;;;;;;;25.81;34.35;99327.59;4502426;31;20076;-81
2022/06/18 05:23:56;;;;;;;6.28;2.45;;;;;;;25.81;33.85;99331.13;4502204;31;20373;-80
2022/06/18 05:26:22;;;;;;;7.93;2.30;;;;;;;25.93;33.17;99331.66;4502237;31;20096;-81
2022/06/18 05:28:47;;;;;;;7.95;2.70;;;;;;;25.97;33.49;99334.88;4502406;31;20491;-79
2022/06/18 05:31:13;;;;;;;8.05;2.60;;;;;;;26.14;33.08;99336.53;4502515;31;20106;-79
2022/06/18 05:33:38;;;;;;;9.10;2.90;;;;;;;26.28;33.13;99335.84;4502366;31;20316;-81
2022/06/18 05:36:05;;;;;;;7.35;2.67;;;;;;;26.64;33.59;99342.72;4501374;31;20377;-80
2022/06/18 05:38:31;;;;;;;7.20;2.60;;;;;;;26.81;35.26;99344.34;4502628;31;20079;-81
2022/06/18 05:40:56;;;;;;;7.28;2.53;;;;;;;27.10;34.13;99342.00;4487903;31;20454;-81
2022/06/18 05:43:21;;;;;;;7.65;2.75;;;;;;;27.07;34.45;99345.91;4502322;31;20111;-81
2022/06/18 05:45:47;;;;;;;9.32;2.70;;;;;;;27.01;34.22;99350.16;4501048;31;20108;-81
2022/06/18 05:48:12;;;;;;;7.70;2.78;;;;;;;27.05;32.61;99356.06;4502256;31;20099;-80
2022/06/18 05:50:38;;;;;;;9.40;2.78;;;;;;;26.81;32.79;99355.16;4502160;31;20487;-81
2022/06/18 05:53:03;;;;;;;6.47;2.55;;;;;;;26.86;32.52;99360.87;4500960;31;20424;-81
2022/06/18 05:55:29;;;;;;;7.65;2.60;;;;;;;27.06;31.61;99353.19;4500664;31;20148;-81
2022/06/18 05:57:56;;;;;;;11.30;3.03;;;;;;;27.07;31.92;99348.62;4501834;31;20088;-81
2022/06/18 06:00:26;;;;;;;7.32;2.80;;;;;;;27.13;31.54;99363.31;4501883;31;20088;-80
2022/06/18 06:02:52;;;;;;;5.75;2.50;;;;;;;27.14;31.96;99357.72;4501892;31;20359;-81
2022/06/18 06:05:17;;;;;;;7.10;2.50;;;;;;;27.05;32.13;99358.78;4501758;31;20149;-81
2022/06/18 06:07:46;;;;;;;7.40;2.60;;;;;;;27.10;31.85;99353.69;4501752;31;20084;-81
2022/06/18 06:13:17;;;;;;;6.12;2.40;;;;;;;27.33;31.02;99353.75;4502628;31;20573;-81
2022/06/18 06:15:43;;;;;;;7.68;2.85;;;;;;;27.36;31.42;99355.28;4503869;31;20148;-81
2022/06/18 06:18:13;;;;;;;7.05;2.65;;;;;;;27.56;30.81;99353.78;4503949;31;20092;-81
2022/06/18 06:20:40;;;;;;;8.48;2.85;;;;;;;27.74;30.54;99342.66;4502687;31;20088;-81
2022/06/18 06:23:07;;;;;;;7.68;2.72;;;;;;;27.88;31.02;99351.88;4503858;31;20092;-82
2022/06/18 06:25:33;;;;;;;6.68;2.62;;;;;;;27.96;30.65;99348.28;4502440;31;20112;-81
2022/06/18 06:27:58;;;;;;;6.72;2.70;;;;;;;28.07;29.74;99347.84;4503820;31;20106;-80
2022/06/18 06:30:24;;;;;;;6.60;2.40;;;;;;;28.31;29.81;99354.03;4502685;31;20084;-81
2022/06/18 06:32:49;;;;;;;7.75;3.03;;;;;;;28.64;29.58;99359.97;4502634;31;20099;-81
2022/06/18 06:35:15;;;;;;;9.88;2.90;;;;;;;28.92;29.09;99359.34;4503757;31;20076;-82
2022/06/18 06:37:41;;;;;;;8.55;2.75;;;;;;;28.96;29.25;99358.75;4503675;31;20088;-81
2022/06/18 06:40:07;;;;;;;7.80;2.67;;;;;;;29.14;28.72;99362.97;4502498;31;20084;-81
2022/06/18 06:42:47;;;;;;;7.43;2.60;;;;;;;29.26;27.82;99358.72;4502504;31;20104;-81
2022/06/18 06:45:21;;;;;;;5.68;2.17;;;;;;;29.40;27.00;99357.03;4502521;31;20161;-80
2022/06/18 06:47:47;;;;;;;7.97;2.67;;;;;;;29.58;27.00;99354.72;4503693;31;20118;-81
2022/06/18 06:50:15;;;;;;;6.83;2.50;;;;;;;29.62;26.53;99355.16;4503665;31;20575;-81
2022/06/18 06:52:41;;;;;;;6.85;2.58;;;;;;;29.74;25.52;99352.81;4502699;31;20088;-80
2022/06/18 06:57:59;;;;;;;7.25;2.50;;;;;;;29.74;26.83;99359.06;4502610;31;20197;-80
2022/06/18 07:00:24;;;;;;;6.55;2.53;;;;;;;29.97;26.57;99349.88;4503604;31;20454;-80
2022/06/18 07:02:50;;;;;;;6.75;2.60;;;;;;;30.24;26.06;99348.22;4503569;31;20081;-78
2022/06/18 07:05:15;;;;;;;9.40;2.83;;;;;;;30.41;24.67;99347.97;4502286;31;20478;-81
2022/06/18 07:07:41;;;;;;;6.62;2.65;;;;;;;30.26;24.62;99353.47;4503541;31;20092;-80
2022/06/18 07:10:08;;;;;;;6.60;2.45;;;;;;;29.93;25.28;99354.03;4499924;31;20093;-79
2022/06/18 07:12:34;;;;;;;8.35;2.70;;;;;;;29.73;25.94;99356.56;4494396;31;20152;-82
2022/06/18 07:15:00;;;;;;;8.00;2.92;;;;;;;29.76;26.22;99350.75;4486476;32;20127;-80
2022/06/18 07:17:27;;;;;;;11.65;3.15;;;;;;;29.52;26.33;99351.94;4487696;31;20084;-80
2022/06/18 07:19:53;;;;;;;7.85;2.80;;;;;;;29.25;26.45;99358.94;4487640;31;20428;-79
2022/06/18 07:22:19;;;;;;;6.53;2.70;;;;;;;28.96;27.06;99350.63;4487570;32;20124;-81
2022/06/18 07:24:44;;;;;;;7.45;2.92;;;;;;;28.95;27.35;99357.06;4487167;31;20105;-81
2022/06/18 07:27:09;;;;;;;11.27;2.83;;;;;;;28.72;27.31;99353.63;4487560;31;20144;-81
2022/06/18 07:29:35;;;;;;;9.82;3.35;;;;;;;28.51;27.73;99352.53;4487618;31;20088;-79
2022/06/18 07:32:10;;;;;;;9.63;3.30;;;;;;;28.53;27.69;99352.31;4487488;31;20111;-80
2022/06/18 07:34:36;;;;;;;8.02;2.72;;;;;;;28.42;27.28;99346.31;4484506;31;20455;-82
2022/06/18 07:37:01;;;;;;;8.10;3.20;;;;;;;28.32;27.76;99348.44;4498717;31;20080;-82
2022/06/18 07:39:27;;;;;;;7.70;2.97;;;;;;;28.42;27.51;99351.72;4498178;31;20386;-82
2022/06/18 07:41:53;;;;;;;8.70;2.97;;;;;;;28.56;28.12;99354.66;4494277;31;20149;-83
2022/06/18 07:44:19;;;;;;;7.43;2.90;;;;;;;28.74;28.38;99348.84;4494253;31;20144;-81
2022/06/18 07:46:47;;;;;;;7.37;2.83;;;;;;;28.66;27.21;99351.66;4501764;31;20402;-82
2022/06/18 07:49:13;;;;;;;6.60;2.60;;;;;;;28.70;27.44;99340.25;4488585;31;20142;-81
2022/06/18 07:51:39;;;;;;;6.57;2.62;;;;;;;28.63;27.12;99348.31;4497167;31;20441;-81
2022/06/18 07:54:04;;;;;;;8.65;2.55;;;;;;;28.46;28.05;99351.34;4492989;31;20451;-81
2022/06/18 07:56:31;;;;;;;7.82;3.12;;;;;;;28.48;27.97;99346.59;4495987;31;20119;-81
2022/06/18 07:58:56;;;;;;;7.05;2.75;;;;;;;28.57;28.36;99343.63;4501603;31;20110;-82
2022/06/18 08:01:22;;;;;;;7.22;2.83;;;;;;;28.38;27.34;99342.28;4488405;31;20394;-82
2022/06/18 08:03:47;;;;;;;7.07;2.90;;;;;;;28.30;28.22;99341.50;4496323;31;20149;-81
2022/06/18 08:06:13;;;;;;;6.93;2.60;;;;;;;28.23;28.13;99346.84;4479508;31;20428;-82
2022/06/18 08:08:38;;;;;;;6.47;2.55;;;;;;;28.26;28.35;99351.03;4489840;31;20161;-80
2022/06/18 08:11:07;;;;;;;6.53;2.60;;;;;;;28.24;28.30;99340.41;4484488;31;20151;-80
2022/06/18 08:13:33;;;;;;;7.18;2.60;;;;;;;28.02;28.45;99334.81;4489492;31;20107;-83
2022/06/18 08:15:58;;;;;;;7.28;3.15;;;;;;;28.04;28.56;99346.31;4499049;31;20148;-82
2022/06/18 08:18:24;;;;;;;7.05;2.70;;;;;;;27.95;27.84;99333.91;4498957;31;20119;-84
2022/06/18 08:20:49;;;;;;;15.23;3.03;;;;;;;28.21;27.33;99335.34;4500149;31;20136;-82
2022/06/18 08:23:14;;;;;;;9.05;2.60;;;;;;;28.35;27.86;99333.69;4493490;31;20115;-83
2022/06/18 08:25:41;;;;;;;13.50;3.00;;;;;;;28.31;27.71;99330.50;4495427;31;20451;-83
2022/06/18 08:28:08;;;;;;;7.73;3.37;;;;;;;28.36;28.07;99335.38;4485853;31;20089;-82
2022/06/18 08:30:35;;;;;;;6.20;2.50;;;;;;;28.55;28.06;99339.41;4488500;31;20096;-82
2022/06/18 08:33:00;;;;;;;7.33;2.50;;;;;;;28.58;26.89;99330.91;4497519;31;20486;-82
2022/06/18 08:35:26;;;;;;;7.15;2.47;;;;;;;28.56;27.12;99322.97;4487583;31;20155;-84
2022/06/18 08:37:52;;;;;;;7.22;2.10;;;;;;;28.51;27.72;99327.22;4496261;31;20096;-82
2022/06/18 08:40:45;;;;;;;4.83;1.90;;;;;;;28.44;27.56;99329.84;4493208;31;20749;-83
2022/06/18 08:43:18;;;;;;;6.07;1.90;;;;;;;28.10;27.72;99319.53;4482286;31;20080;-79
2022/06/18 08:46:07;;;;;;;5.68;1.90;;;;;;;28.22;27.56;99324.31;4496648;31;20776;-79
2022/06/18 08:48:51;;;;;;;5.07;2.05;;;;;;;28.14;27.27;99320.84;4494754;31;20134;-80
2022/06/18 08:51:48;;;;;;;6.22;1.85;;;;;;;28.27;26.66;99310.22;4488829;31;20143;-80
2022/06/18 08:54:44;;;;;;;4.25;1.62;;;;;;;28.28;27.90;99314.63;4415227;32;20145;-80
2022/06/18 08:57:41;;;;;;;3.92;1.75;;;;;;;28.47;26.20;99313.22;4419631;32;20126;-83
2022/06/18 09:00:24;;;;;;;4.78;1.70;;;;;;;28.15;27.13;99311.72;4391527;32;20137;-83
2022/06/18 09:02:49;;;;;;;6.12;1.70;;;;;;;28.31;27.79;99308.81;4379043;32;20145;-83
2022/06/18 09:05:45;;;;;;;4.90;1.80;;;;;;;28.39;26.76;99306.00;4391457;32;20130;-85
2022/06/18 09:08:23;;;;;;;4.70;1.73;;;;;;;28.42;26.42;99304.81;4391362;32;20102;-87
2022/06/18 09:10:48;;;;;;;;;;;;;;;28.28;26.49;99301.06;4391551;32;20129;-88
2022/06/18 09:13:33;;;;;;;4.60;1.70;;;;;;;28.43;26.61;99301.94;4390971;32;20025;-87
2022/06/18 09:16:02;;;;;;;6.22;1.90;;;;;;;28.39;26.06;99295.16;4391381;32;20132;-87
2022/06/18 09:18:32;;;;;;;5.28;1.70;;;;;;;28.10;27.39;99297.88;4391287;32;20102;-87
2022/06/18 09:21:03;;;;;;;4.65;1.60;;;;;;;28.49;27.04;99292.22;4391285;32;20169;-87
2022/06/18 09:23:31;;;;;;;5.47;2.22;;;;;;;28.36;26.64;99292.03;4391192;32;20082;-87
2022/06/18 09:25:59;;;;;;;9.20;2.00;;;;;;;28.29;27.11;99302.75;4391412;32;20110;-86
2022/06/18 09:28:35;;;;;;;6.78;1.90;;;;;;;28.08;26.56;99297.22;4391870;32;20110;-89
2022/06/18 09:31:05;;;;;;;4.30;1.60;;;;;;;28.00;26.91;99292.72;4423554;32;20105;-88
2022/06/18 09:33:33;;;;;;;4.65;1.58;;;;;;;28.28;27.14;99298.38;4440113;32;20607;-87
2022/06/18 09:36:15;;;;;;;3.33;1.50;;;;;;;28.19;25.66;99294.06;4466365;32;20444;-86
2022/06/18 09:38:41;;;;;;;6.15;1.75;;;;;;;28.17;25.51;99291.53;4485333;32;20119;-83
2022/06/18 09:41:17;;;;;;;6.97;1.60;;;;;;;28.17;25.34;99288.81;4485147;32;20118;-84
2022/06/18 09:44:07;;;;;;;5.57;1.73;;;;;;;28.15;25.97;99292.75;4485271;32;20120;-83
2022/06/18 09:46:51;;;;;;;4.35;1.40;;;;;;;27.90;25.33;99294.84;4486625;31;20350;-82
2022/06/18 09:49:16;;;;;;;5.75;1.60;;;;;;;27.80;25.58;99285.06;4487143;32;20466;-80
2022/06/18 09:51:50;;;;;;;7.80;1.70;;;;;;;27.97;25.87;99290.34;4487024;32;20104;-81
2022/06/18 09:54:17;;;;;;;5.15;1.73;;;;;;;28.11;26.23;99280.59;4487109;32;20069;-82
2022/06/18 09:56:56;;;;;;;4.47;1.60;;;;;;;28.21;25.56;99282.00;4487083;32;20104;-81
2022/06/18 09:59:28;;;;;;;6.03;1.75;;;;;;;27.88;24.82;99281.50;4487236;32;20497;-81
2022/06/18 10:01:55;;;;;;;4.75;1.60;;;;;;;27.93;25.60;99280.94;4488356;31;20079;-81
2022/06/18 10:07:24;;;;;;;4.90;1.60;;;;;;;27.83;26.02;99278.44;4488280;32;20233;-81
2022/06/18 10:09:52;;;;;;;4.55;1.50;;;;;;;27.94;25.20;99274.50;4488126;31;20175;-79
2022/06/18 10:12:23;;;;;;;5.07;1.70;;;;;;;27.99;25.04;99259.38;4487029;32;20111;-81
2022/06/18 10:14:53;;;;;;;5.07;1.70;;;;;;;28.01;25.34;99264.63;4487957;32;20088;-81
2022/06/18 10:17:39;;;;;;;5.90;1.87;;;;;;;28.07;25.78;99263.00;4486849;32;20163;-84
2022/06/18 10:20:38;;;;;;;4.53;1.77;;;;;;;28.00;25.95;99255.63;4488074;32;20168;-83
2022/06/18 10:23:09;;;;;;;4.22;1.73;;;;;;;27.74;26.71;99250.62;4488343;32;20147;-81
2022/06/18 10:25:42;;;;;;;6.32;1.75;;;;;;;27.81;26.17;99256.13;4487831;31;20081;-83
2022/06/18 10:28:20;;;;;;;4.50;1.67;;;;;;;27.71;26.53;99242.03;4486765;32;20093;-83
2022/06/18 10:30:49;;;;;;;5.43;1.70;;;;;;;27.78;26.94;99240.28;4486649;32;20104;-83
2022/06/18 10:33:33;;;;;;;4.87;1.80;;;;;;;27.74;27.20;99238.94;4486661;32;20156;-83
2022/06/18 10:36:20;;;;;;;6.70;1.60;;;;;;;27.91;26.23;99234.22;4488013;31;20107;-81
2022/06/18 10:39:04;;;;;;;4.68;1.83;;;;;;;27.78;27.74;99246.53;4488358;31;20088;-82
2022/06/18 10:41:50;;;;;;;6.43;1.73;;;;;;;27.75;27.80;99241.47;4502207;31;20109;-82
2022/06/18 10:44:22;;;;;;;5.22;1.90;;;;;;;27.48;27.57;99242.06;4453342;32;20180;-81
2022/06/18 10:47:02;;;;;;;5.47;1.87;;;;;;;27.79;26.94;99241.94;4439736;32;20087;-82
2022/06/18 10:49:28;;;;;;;5.43;1.80;;;;;;;27.79;27.32;99244.66;4450746;32;20464;-83
2022/06/18 10:51:53;;;;;;;5.20;1.98;;;;;;;27.78;27.68;99240.28;4454656;32;20151;-82
2022/06/18 10:54:31;;;;;;;4.80;1.90;;;;;;;28.00;26.59;99236.69;4439226;32;20121;-83
2022/06/18 10:56:57;;;;;;;6.32;1.80;;;;;;;28.10;26.86;99225.56;4443338;32;20346;-83
2022/06/18 10:59:37;;;;;;;5.35;2.00;;;;;;;28.09;26.78;99229.31;4437237;32;20113;-82
2022/06/18 11:02:14;;;;;;;6.00;1.90;;;;;;;28.26;27.09;99234.53;4450750;32;20116;-83
2022/06/18 11:04:40;;;;;;;6.45;1.90;;;;;;;28.22;27.59;99234.94;4431154;32;20098;-82
2022/06/18 11:07:08;;;;;;;6.40;1.90;;;;;;;28.32;28.00;99228.38;4446229;32;20100;-83
2022/06/18 11:09:35;;;;;;;;;;;;;;;28.38;27.02;99233.06;4424822;32;20116;-83
2022/06/18 11:12:05;;;;;;;4.93;2.00;;;;;;;28.42;27.21;99227.06;4435087;32;19984;-83
2022/06/18 11:14:40;;;;;;;6.15;2.10;;;;;;;28.64;26.25;99221.72;4435297;32;20077;-83
2022/06/18 11:17:18;;;;;;;6.65;2.03;;;;;;;28.60;27.26;99225.84;4435481;32;20097;-83
2022/06/18 11:19:48;;;;;;;4.35;1.87;;;;;;;28.53;26.62;99224.91;4435364;32;20231;-83
2022/06/18 11:22:25;;;;;;;5.53;1.70;;;;;;;28.75;26.24;99213.09;4487075;31;20097;-83
2022/06/18 11:24:59;;;;;;;7.55;2.00;;;;;;;28.76;25.92;99209.37;4484014;32;20213;-84
2022/06/18 11:27:29;;;;;;;5.18;1.92;;;;;;;28.67;26.72;99206.97;4485961;31;20092;-83
2022/06/18 11:29:55;;;;;;;4.37;1.70;;;;;;;28.75;26.64;99207.69;4483522;32;20648;-83
2022/06/18 11:32:27;;;;;;;4.60;1.87;;;;;;;28.90;26.94;99196.81;4484402;32;20124;-83
2022/06/18 11:35:09;;;;;;;6.47;2.00;;;;;;;28.86;26.42;99195.50;4483290;32;20245;-83
2022/06/18 11:37:35;;;;;;;5.10;2.20;;;;;;;29.01;26.31;99195.44;4483490;32;20104;-83
2022/06/18 11:40:22;;;;;;;5.47;2.00;;;;;;;28.87;25.99;99191.75;4486599;32;20131;-83
2022/06/18 11:42:58;;;;;;;4.65;1.90;;;;;;;29.08;26.14;99182.78;4487641;31;20183;-83
2022/06/18 11:45:39;;;;;;;4.75;1.87;;;;;;;29.11;26.20;99181.56;4486379;32;20159;-83
2022/06/18 11:48:21;;;;;;;5.68;1.90;;;;;;;29.04;26.40;99169.81;4487453;32;20469;-83
2022/06/18 11:50:58;;;;;;;5.53;2.10;;;;;;;29.13;27.10;99172.25;4484776;31;20101;-83
2022/06/18 11:53:31;;;;;;;5.78;1.98;;;;;;;29.14;26.86;99162.22;4482955;32;20134;-82
2022/06/18 11:55:57;;;;;;;4.25;2.00;;;;;;;29.14;25.76;99165.75;4484596;31;20163;-83
2022/06/18 11:58:32;;;;;;;5.47;2.10;;;;;;;29.02;26.58;99165.41;4484359;31;20146;-83
2022/06/18 12:01:32;;;;;;;8.98;2.58;;;;;;;29.16;26.95;99152.84;4482945;32;20184;-83
2022/06/18 12:04:12;;;;;;;8.80;3.00;;;;;;;29.12;26.50;99162.41;4486086;32;20119;-83